createdAt,value
2022-12-08T00:01:07.960Z,101135.44
2022-12-08T00:03:35.737Z,101137.34
2022-12-08T00:06:22.637Z,101127.38
2022-12-08T00:09:07.931Z,101119.50
2022-12-08T00:11:34.984Z,101124.06
2022-12-08T00:14:01.685Z,101117.59
2022-12-08T00:16:28.255Z,101113.06
2022-12-08T00:18:54.802Z,101098.97
2022-12-08T00:21:21.348Z,101094.41
2022-12-08T00:23:47.909Z,101087.13
2022-12-08T00:26:14.440Z,101084.44
2022-12-08T00:28:40.908Z,101076.34
2022-12-08T00:31:09.421Z,101078.00
2022-12-08T00:33:36.010Z,101082.53
2022-12-08T00:36:10.389Z,101079.28
2022-12-08T00:38:38.262Z,101074.47
2022-12-08T00:41:11.881Z,101073.44
2022-12-08T00:43:38.450Z,101081.50
2022-12-08T00:46:05.068Z,101076.13
2022-12-08T00:48:31.635Z,101078.81
2022-12-08T00:50:58.097Z,101062.84
2022-12-08T00:53:24.647Z,101063.66
2022-12-08T00:55:51.146Z,101054.53
2022-12-08T00:58:17.720Z,101057.47
2022-12-08T01:00:44.582Z,101054.75
2022-12-08T01:03:12.022Z,101048.56
2022-12-08T01:05:39.477Z,101043.97
2022-12-08T01:08:06.786Z,101050.19
2022-12-08T01:10:36.309Z,101057.25
2022-12-08T01:13:03.115Z,101060.97
2022-12-08T01:15:29.666Z,101075.31
2022-12-08T01:17:56.292Z,101060.97
2022-12-08T01:20:22.845Z,101064.53
2022-12-08T01:22:49.503Z,101070.47
2022-12-08T01:25:16.094Z,101070.72
2022-12-08T01:27:42.640Z,101057.25
2022-12-08T01:30:09.806Z,101054.53
2022-12-08T01:32:36.254Z,101061.81
2022-12-08T01:35:02.805Z,101052.06
2022-12-08T01:37:29.774Z,101041.53
2022-12-08T01:39:56.255Z,101051.25
2022-12-08T01:42:23.795Z,101047.75
2022-12-08T01:44:54.838Z,101043.16
2022-12-08T01:47:24.209Z,101038.59
2022-12-08T01:49:50.728Z,101033.19
2022-12-08T01:52:23.151Z,101018.31
2022-12-08T01:54:58.333Z,101025.34
2022-12-08T01:57:33.335Z,101017.25
2022-12-08T02:00:10.176Z,101027.78
2022-12-08T02:02:46.463Z,101013.75
2022-12-08T02:05:14.060Z,101022.88
2022-12-08T02:07:40.936Z,101022.66
2022-12-08T02:10:08.198Z,101022.66
2022-12-08T02:12:34.786Z,101024.53
2022-12-08T02:15:04.988Z,101022.66
2022-12-08T02:18:00.378Z,101019.97
2022-12-08T02:21:03.327Z,101036.13
2022-12-08T02:23:57.414Z,101019.13
2022-12-08T02:26:38.761Z,101015.38
2022-12-08T02:29:14.020Z,101010.22
2022-12-08T02:32:08.983Z,101009.38
2022-12-08T02:34:45.686Z,101006.47
2022-12-08T02:37:24.020Z,101007.28
2022-12-08T02:39:59.387Z,101001.06
2022-12-08T02:42:38.191Z,101000.25
2022-12-08T02:45:14.406Z,100993.22
2022-12-08T02:47:41.224Z,100983.28
2022-12-08T02:50:08.280Z,100988.66
2022-12-08T02:52:34.703Z,100980.78
2022-12-08T02:55:09.454Z,100972.69
2022-12-08T02:57:56.194Z,100960.84
2022-12-08T03:00:26.625Z,100964.63
2022-12-08T03:03:29.028Z,100957.34
2022-12-08T03:06:08.235Z,100957.34
2022-12-08T03:08:34.640Z,100962.72
2022-12-08T03:11:20.871Z,100956.53
2022-12-08T03:13:52.047Z,100957.34
2022-12-08T03:16:27.365Z,100944.66
2022-12-08T03:19:02.185Z,100946.56
2022-12-08T03:21:29.908Z,100935.75
2022-12-08T03:23:57.557Z,100937.44
2022-12-08T03:26:45.882Z,100934.72
2022-12-08T03:29:13.323Z,100941.97
2022-12-08T03:31:44.418Z,100945.75
2022-12-08T03:34:13.985Z,100947.38
2022-12-08T03:36:40.473Z,100943.03
2022-12-08T03:39:06.985Z,100946.56
2022-12-08T03:41:33.547Z,100936.84
2022-12-08T03:44:00.114Z,100934.13
2022-12-08T03:48:55.417Z,100946.34
2022-12-08T03:51:22.889Z,100943.03
2022-12-08T03:53:49.911Z,100927.94
2022-12-08T03:56:23.038Z,100925.22
2022-12-08T03:58:49.605Z,100925.22
2022-12-08T04:01:16.090Z,100918.22
2022-12-08T04:03:42.542Z,100916.31
2022-12-08T04:06:09.338Z,100914.44
2022-12-08T04:08:35.887Z,100909.88
2022-12-08T04:11:02.445Z,100915.50
2022-12-08T04:13:29.221Z,100921.72
2022-12-08T04:15:55.828Z,100907.16
2022-12-08T04:18:23.005Z,100908.00
2022-12-08T04:20:49.476Z,100887.47
2022-12-08T04:23:16.040Z,100889.94
2022-12-08T04:25:42.762Z,100908.00
2022-12-08T04:28:09.300Z,100921.25
2022-12-08T04:30:35.881Z,100909.88
2022-12-08T04:33:02.614Z,100908.81
2022-12-08T04:35:29.181Z,100904.47
2022-12-08T04:37:55.984Z,100893.44
2022-12-08T04:40:22.885Z,100887.47
2022-12-08T04:42:49.415Z,100889.09
2022-12-08T04:45:16.046Z,100893.44
2022-12-08T04:47:43.123Z,100884.53
2022-12-08T04:50:10.526Z,100882.91
2022-12-08T04:52:37.174Z,100882.09
2022-12-08T04:55:03.954Z,100877.50
2022-12-08T04:57:30.484Z,100872.13
2022-12-08T04:59:57.129Z,100884.78
2022-12-08T05:02:23.768Z,100881.28
2022-12-08T05:04:50.316Z,100874.56
2022-12-08T05:07:16.801Z,100871.31
2022-12-08T05:09:43.388Z,100886.41
2022-12-08T05:12:09.870Z,100869.69
2022-12-08T05:14:36.387Z,100869.41
2022-12-08T05:17:09.186Z,100851.34
2022-12-08T05:19:36.215Z,100865.66
2022-12-08T05:22:02.834Z,100863.78
2022-12-08T05:24:29.338Z,100864.03
2022-12-08T05:26:55.865Z,100867.53
2022-12-08T05:29:22.355Z,100877.50
2022-12-08T05:31:49.000Z,100864.03
2022-12-08T05:34:15.706Z,100878.31
2022-12-08T05:36:42.205Z,100872.13
2022-12-08T05:39:12.432Z,100853.25
2022-12-08T05:41:39.530Z,100855.94
2022-12-08T05:44:06.378Z,100861.34
2022-12-08T05:46:33.412Z,100856.19
2022-12-08T05:49:01.117Z,100852.44
2022-12-08T05:51:28.112Z,100852.44
2022-12-08T05:53:55.682Z,100872.13
2022-12-08T05:56:23.037Z,100874.00
2022-12-08T05:58:50.059Z,100874.00
2022-12-08T06:01:30.194Z,100874.00
2022-12-08T06:03:58.222Z,100878.31
2022-12-08T06:06:25.342Z,100875.63
2022-12-08T06:08:51.950Z,100883.97
2022-12-08T06:11:29.699Z,100883.72
2022-12-08T06:13:57.379Z,100881.03
2022-12-08T06:16:26.344Z,100882.09
2022-12-08T06:18:53.300Z,100883.72
2022-12-08T06:21:20.053Z,100880.22
2022-12-08T06:23:51.362Z,100873.75
2022-12-08T06:26:18.536Z,100871.31
2022-12-08T06:28:45.220Z,100875.63
2022-12-08T06:31:15.854Z,100874.00
2022-12-08T06:33:43.016Z,100875.63
2022-12-08T06:36:12.670Z,100875.63
2022-12-08T06:38:43.353Z,100870.22
2022-12-08T06:41:11.118Z,100869.41
2022-12-08T06:43:38.022Z,100878.56
2022-12-08T06:46:07.967Z,100874.81
2022-12-08T06:48:34.518Z,100873.75
2022-12-08T06:51:13.172Z,100878.56
2022-12-08T06:53:40.748Z,100880.22
2022-12-08T06:56:07.912Z,100874.81
2022-12-08T06:58:35.045Z,100870.22
2022-12-08T07:01:10.115Z,100866.97
2022-12-08T07:03:37.637Z,100856.19
2022-12-08T07:06:05.209Z,100852.69
2022-12-08T07:08:33.146Z,100858.06
2022-12-08T07:10:59.935Z,100854.31
2022-12-08T07:13:26.445Z,100850.81
2022-12-08T07:15:53.053Z,100861.34
2022-12-08T07:18:19.563Z,100862.16
2022-12-08T07:20:46.154Z,100861.34
2022-12-08T07:23:12.700Z,100861.59
2022-12-08T07:25:39.239Z,100869.41
2022-12-08T07:28:11.085Z,100862.41
2022-12-08T07:30:38.484Z,100861.34
2022-12-08T07:33:05.954Z,100867.78
2022-12-08T07:35:34.861Z,100857.00
2022-12-08T07:38:02.236Z,100849.72
2022-12-08T07:40:29.028Z,100859.69
2022-12-08T07:42:55.517Z,100860.53
2022-12-08T07:45:24.663Z,100857.00
2022-12-08T07:47:54.771Z,100860.53
2022-12-08T07:50:21.265Z,100860.53
2022-12-08T07:52:48.886Z,100850.53
2022-12-08T07:55:15.369Z,100844.59
2022-12-08T07:57:41.915Z,100841.91
2022-12-08T08:00:09.126Z,100847.28
2022-12-08T08:02:35.993Z,100837.53
2022-12-08T08:05:02.821Z,100837.31
2022-12-08T08:07:31.269Z,100832.75
2022-12-08T08:09:58.118Z,100832.97
2022-12-08T08:12:32.735Z,100842.47
2022-12-08T08:15:01.420Z,100840.00
2022-12-08T08:17:28.693Z,100840.81
2022-12-08T08:19:55.673Z,100836.25
2022-12-08T08:22:22.265Z,100834.63
2022-12-08T08:24:48.720Z,100836.50
2022-12-08T08:27:15.174Z,100841.66
2022-12-08T08:29:41.828Z,100838.94
2022-12-08T08:32:08.384Z,100834.38
2022-12-08T08:34:34.832Z,100835.44
2022-12-08T08:37:01.588Z,100840.81
2022-12-08T08:39:30.127Z,100840.81
2022-12-08T08:41:56.602Z,100849.97
2022-12-08T08:44:23.232Z,100848.09
2022-12-08T08:46:49.807Z,100857.81
2022-12-08T08:49:16.438Z,100857.81
2022-12-08T08:51:43.731Z,100865.31
2022-12-08T08:54:10.549Z,100887.47
2022-12-08T08:56:37.141Z,100898.53
2022-12-08T08:59:03.929Z,100887.72
2022-12-08T09:01:30.730Z,100898.53
2022-12-08T09:03:57.693Z,100903.31
2022-12-08T09:06:25.443Z,100902.03
2022-12-08T09:08:52.121Z,100895.81
2022-12-08T09:11:18.815Z,100893.13
2022-12-08T09:13:51.079Z,100895.81
2022-12-08T09:16:18.729Z,100907.44
2022-12-08T09:18:45.597Z,100910.34
2022-12-08T09:21:20.354Z,100901.44
2022-12-08T09:23:46.832Z,100899.56
2022-12-08T09:26:13.305Z,100890.66
2022-12-08T09:28:39.864Z,100894.16
2022-12-08T09:31:06.398Z,100892.06
2022-12-08T09:33:32.925Z,100902.03
2022-12-08T09:36:03.894Z,100900.38
2022-12-08T09:38:30.485Z,100889.59
2022-12-08T09:40:58.253Z,100895.81
2022-12-08T09:43:42.899Z,100889.84
2022-12-08T09:46:11.501Z,100884.44
2022-12-08T09:48:43.167Z,100892.53
2022-12-08T09:51:11.750Z,100873.66
2022-12-08T09:53:44.257Z,100857.47
2022-12-08T09:56:17.542Z,100847.78
2022-12-08T09:58:51.848Z,100865.56
2022-12-08T10:01:20.441Z,100851.28
2022-12-08T10:03:47.307Z,100846.69
2022-12-08T10:06:20.250Z,100845.63
2022-12-08T10:08:59.043Z,100852.34
2022-12-08T10:11:45.888Z,100859.38
2022-12-08T10:14:21.502Z,100863.94
2022-12-08T10:16:52.034Z,100869.09
2022-12-08T10:19:24.409Z,100865.56
2022-12-08T10:21:53.092Z,100872.03
2022-12-08T10:24:37.438Z,100875.53
2022-12-08T10:27:06.058Z,100876.34
2022-12-08T10:29:33.463Z,100868.28
2022-12-08T10:32:00.929Z,100857.47
2022-12-08T10:34:27.595Z,100845.06
2022-12-08T10:36:56.638Z,100844.00
2022-12-08T10:39:33.569Z,100847.78
2022-12-08T10:42:08.529Z,100841.31
2022-12-08T10:44:53.675Z,100842.13
2022-12-08T10:47:26.025Z,100839.41
2022-12-08T10:50:19.003Z,100835.09
2022-12-08T10:52:47.062Z,100837.22
2022-12-08T10:55:18.586Z,100833.22
2022-12-08T10:57:45.450Z,100827.22
2022-12-08T11:00:14.719Z,100819.16
2022-12-08T11:02:54.887Z,100802.97
2022-12-08T11:05:23.892Z,100801.94
2022-12-08T11:07:52.772Z,100782.81
2022-12-08T11:10:26.688Z,100776.84
2022-12-08T11:12:53.345Z,100782.00
2022-12-08T11:15:20.344Z,100781.41
2022-12-08T11:18:00.860Z,100778.69
2022-12-08T11:20:27.732Z,100784.09
2022-12-08T11:22:56.440Z,100782.25
2022-12-08T11:25:25.624Z,100788.66
2022-12-08T11:27:54.567Z,100771.47
2022-12-08T11:30:23.915Z,100780.34
2022-12-08T11:32:56.326Z,100780.34
2022-12-08T11:35:31.418Z,100773.09
2022-12-08T11:38:24.209Z,100769.56
2022-12-08T11:40:54.401Z,100785.97
2022-12-08T11:43:35.892Z,100791.38
2022-12-08T11:46:09.460Z,100790.56
2022-12-08T11:48:50.200Z,100785.97
2022-12-08T11:51:23.978Z,100791.38
2022-12-08T11:54:09.109Z,100797.56
2022-12-08T11:56:44.321Z,100795.72
2022-12-08T11:59:44.262Z,100791.38
2022-12-08T12:02:17.248Z,100778.69
2022-12-08T12:05:23.593Z,100780.34
2022-12-08T12:08:41.754Z,100760.09
2022-12-08T12:11:40.441Z,100768.75
2022-12-08T12:14:31.021Z,100760.69
2022-12-08T12:17:07.775Z,100757.38
2022-12-08T12:19:39.565Z,100755.50
2022-12-08T12:22:17.233Z,100759.84
2022-12-08T12:24:47.786Z,100754.44
2022-12-08T12:27:14.207Z,100758.78
2022-12-08T12:29:59.189Z,100763.38
2022-12-08T12:32:39.555Z,100768.75
2022-12-08T12:35:16.511Z,100774.97
2022-12-08T12:37:43.518Z,100759.03
2022-12-08T12:40:20.792Z,100740.41
2022-12-08T12:42:56.412Z,100731.25
2022-12-08T12:45:34.305Z,100708.03
2022-12-08T12:48:00.756Z,100711.31
2022-12-08T12:50:33.665Z,100706.75
2022-12-08T12:53:26.084Z,100716.47
2022-12-08T12:55:59.463Z,100714.59
2022-12-08T12:58:29.657Z,100721.38
2022-12-08T13:01:08.458Z,100723.56
2022-12-08T13:03:35.275Z,100726.03
2022-12-08T13:06:02.469Z,100732.22
2022-12-08T13:08:29.392Z,100730.13
2022-12-08T13:11:09.864Z,100722.84
2022-12-08T13:13:38.563Z,100715.31
2022-12-08T13:16:19.575Z,100722.91
2022-12-08T13:18:50.965Z,100731.00
2022-12-08T13:21:21.322Z,100721.03
2022-12-08T13:24:08.485Z,100726.69
2022-12-08T13:26:47.259Z,100725.03
2022-12-08T13:29:17.289Z,100732.63
2022-12-08T13:31:55.204Z,100732.06
2022-12-08T13:34:45.239Z,100723.16
2022-12-08T13:37:11.713Z,100734.19
2022-12-08T13:39:41.158Z,100728.78
2022-12-08T13:42:19.643Z,100716.13
2022-12-08T13:45:24.294Z,100705.34
2022-12-08T13:57:05.189Z,100689.41
2022-12-08T13:59:34.099Z,100677.00
2022-12-08T14:02:16.269Z,100693.41
2022-12-08T14:05:16.778Z,100681.00
2022-12-08T14:07:35.570Z,100678.31
2022-12-08T14:10:03.573Z,100686.13
2022-12-08T14:12:31.487Z,100685.31
2022-12-08T14:15:05.195Z,100679.13
2022-12-08T14:17:33.690Z,100679.94
2022-12-08T14:20:12.478Z,100685.31
2022-12-08T14:22:41.194Z,100694.47
2022-12-08T14:25:14.362Z,100703.38
2022-12-08T14:27:41.010Z,100711.72
2022-12-08T14:30:16.764Z,100719.56
2022-12-08T14:32:53.676Z,100706.34
2022-12-08T14:35:22.780Z,100705.53
2022-12-08T14:37:53.152Z,100713.63
2022-12-08T14:40:22.893Z,100715.47
2022-12-08T14:43:08.142Z,100715.72
2022-12-08T14:45:40.749Z,100694.97
2022-12-08T14:48:31.781Z,100709.53
2022-12-08T14:51:01.940Z,100689.56
2022-12-08T14:53:56.448Z,100685.75
2022-12-08T14:56:28.806Z,100677.41
2022-12-08T14:59:10.408Z,100676.34
2022-12-08T15:01:37.753Z,100678.22
2022-12-08T15:04:18.755Z,100673.66
2022-12-08T15:07:19.616Z,100681.75
2022-12-08T15:09:51.536Z,100675.53
2022-12-08T15:12:27.052Z,100672.84
2022-12-08T15:15:17.661Z,100680.94
2022-12-08T15:17:50.165Z,100674.72
2022-12-08T15:20:30.149Z,100680.94
2022-12-08T15:23:01.920Z,100672.03
2022-12-08T15:25:28.401Z,100671.19
2022-12-08T15:27:56.423Z,100671.19
2022-12-08T15:30:23.383Z,100682.81
2022-12-08T15:32:52.278Z,100670.38
2022-12-08T15:35:18.983Z,100676.56
2022-12-08T15:37:46.423Z,100672.84
2022-12-08T15:40:18.781Z,100669.56
2022-12-08T15:42:45.582Z,100660.66
2022-12-08T15:45:13.886Z,100656.09
2022-12-08T15:47:42.243Z,100667.69
2022-12-08T15:50:20.323Z,100664.44
2022-12-08T15:52:47.508Z,100669.56
2022-12-08T15:55:15.834Z,100672.50
2022-12-08T16:00:53.418Z,100667.94
2022-12-08T16:09:26.001Z,100672.50
2022-12-08T16:12:11.439Z,100672.50
2022-12-08T16:17:26.706Z,100675.75
2022-12-08T16:19:54.002Z,100678.94
2022-12-08T16:22:52.907Z,100677.91
2022-12-08T16:25:19.328Z,100669.81
2022-12-08T16:30:36.366Z,100660.06
2022-12-08T16:33:02.893Z,100654.47
2022-12-08T16:35:30.433Z,100646.38
2022-12-08T16:37:57.333Z,100659.03
2022-12-08T16:40:24.352Z,100659.03
2022-12-08T16:42:50.804Z,100653.88
2022-12-08T16:45:23.871Z,100662.78
2022-12-08T16:47:55.637Z,100660.06
2022-12-08T16:50:23.566Z,100660.34
2022-12-08T16:53:06.499Z,100668.41
2022-12-08T16:55:34.161Z,100664.66
2022-12-08T16:58:02.667Z,100659.25
2022-12-08T17:00:31.243Z,100654.13
2022-12-08T17:02:58.856Z,100658.72
2022-12-08T17:05:26.663Z,100651.44
2022-12-08T17:07:54.010Z,100650.13
2022-12-08T17:10:27.531Z,100643.91
2022-12-08T17:12:55.669Z,100637.94
2022-12-08T17:15:24.683Z,100643.34
2022-12-08T17:17:52.114Z,100643.34
2022-12-08T17:20:21.304Z,100648.97
2022-12-08T17:22:48.568Z,100639.84
2022-12-08T17:25:16.220Z,100640.66
2022-12-08T17:27:42.815Z,100643.09
2022-12-08T17:30:11.773Z,100640.38
2022-12-08T17:32:38.843Z,100632.56
2022-12-08T17:35:06.374Z,100635.25
2022-12-08T17:37:33.237Z,100631.97
2022-12-08T17:39:59.770Z,100631.97
2022-12-08T17:42:27.227Z,100632.78
2022-12-08T17:44:54.562Z,100623.88
2022-12-08T17:47:21.515Z,100620.38
2022-12-08T17:49:48.053Z,100630.94
2022-12-08T17:52:14.561Z,100612.06
2022-12-08T17:54:41.086Z,100611.47
2022-12-08T17:57:07.555Z,100608.53
2022-12-08T17:59:34.162Z,100618.28
2022-12-08T18:02:00.833Z,100612.88
2022-12-08T18:04:28.318Z,100605.84
2022-12-08T18:06:55.177Z,100599.63
2022-12-08T18:09:21.769Z,100598.81
2022-12-08T18:11:48.438Z,100598.81
2022-12-08T18:14:16.098Z,100588.03
2022-12-08T18:16:45.220Z,100598.00
2022-12-08T18:19:13.033Z,100600.44
2022-12-08T18:21:40.774Z,100587.22
2022-12-08T18:24:09.404Z,100591.78
2022-12-08T18:26:36.276Z,100586.41
2022-12-08T18:29:03.746Z,100578.31
2022-12-08T18:31:30.296Z,100586.16
2022-12-08T18:33:56.870Z,100597.44
2022-12-08T18:36:25.598Z,100598.00
2022-12-08T18:38:53.053Z,100592.88
2022-12-08T18:41:28.793Z,100592.06
2022-12-08T18:43:57.076Z,100589.38
2022-12-08T18:46:24.931Z,100602.59
2022-12-08T18:48:53.109Z,100601.50
2022-12-08T18:51:23.166Z,100610.66
2022-12-08T18:53:50.110Z,100614.19
2022-12-08T18:56:28.457Z,100607.97
2022-12-08T18:59:02.817Z,100595.56
2022-12-08T19:01:34.187Z,100601.19
2022-12-08T19:06:49.913Z,100619.81
2022-12-08T19:09:17.271Z,100610.94
2022-12-08T19:11:44.205Z,100611.16
2022-12-08T19:14:11.346Z,100609.28
2022-12-08T19:16:38.112Z,100609.28
2022-12-08T19:19:05.304Z,100618.44
2022-12-08T19:21:32.332Z,100621.13
2022-12-08T19:23:59.917Z,100614.66
2022-12-08T19:26:27.686Z,100618.44
2022-12-08T19:28:54.226Z,100620.06
2022-12-08T19:31:20.995Z,100627.34
2022-12-08T19:33:47.584Z,100627.34
2022-12-08T19:36:17.685Z,100636.22
2022-12-08T19:39:02.521Z,100637.31
2022-12-08T19:41:47.600Z,100641.88
2022-12-08T19:44:28.920Z,100655.34
2022-12-08T19:46:55.496Z,100632.72
2022-12-08T19:49:22.128Z,100641.63
2022-12-08T19:51:48.625Z,100637.31
2022-12-08T19:54:15.149Z,100634.88
2022-12-08T19:56:41.703Z,100640.25
2022-12-08T19:59:08.385Z,100644.81
2022-12-08T20:01:35.039Z,100637.78
2022-12-08T20:04:01.647Z,100640.25
2022-12-08T20:06:28.197Z,100634.88
2022-12-08T20:08:54.907Z,100634.88
2022-12-08T20:11:21.528Z,100648.34
2022-12-08T20:13:48.430Z,100652.06
2022-12-08T20:16:16.024Z,100652.06
2022-12-08T20:18:44.391Z,100657.47
2022-12-08T20:21:12.279Z,100656.66
2022-12-08T20:23:38.796Z,100658.53
2022-12-08T20:26:07.910Z,100662.84
2022-12-08T20:28:36.185Z,100657.47
2022-12-08T20:31:03.643Z,100660.97
2022-12-08T20:33:30.664Z,100667.22
2022-12-08T20:35:59.891Z,100671.75
2022-12-08T20:38:27.502Z,100674.72
2022-12-08T20:40:54.289Z,100679.28
2022-12-08T20:43:21.031Z,100680.91
2022-12-08T20:45:47.481Z,100668.50
2022-12-08T20:48:14.110Z,100682.78
2022-12-08T20:50:40.984Z,100683.63
2022-12-08T20:53:08.413Z,100683.88
2022-12-08T20:55:37.947Z,100683.88
2022-12-08T20:58:04.925Z,100684.91
2022-12-08T21:00:31.437Z,100682.47
2022-12-08T21:02:58.107Z,100691.97
2022-12-08T21:05:24.909Z,100689.25
2022-12-08T21:07:51.770Z,100691.16
2022-12-08T21:10:18.563Z,100688.44
2022-12-08T21:12:45.161Z,100694.66
2022-12-08T21:15:12.492Z,100701.91
2022-12-08T21:17:39.286Z,100698.38
2022-12-08T21:20:07.182Z,100695.69
2022-12-08T21:22:34.372Z,100699.22
2022-12-08T21:25:00.856Z,100693.84
2022-12-08T21:27:27.564Z,100702.75
2022-12-08T21:29:54.139Z,100704.38
2022-12-08T21:32:23.405Z,100697.34
2022-12-08T21:34:53.635Z,100711.63
2022-12-08T21:37:20.166Z,100704.38
2022-12-08T21:39:46.817Z,100704.38
2022-12-08T21:42:34.306Z,100702.75
2022-12-08T21:45:01.448Z,100706.47
2022-12-08T21:47:28.171Z,100708.13
2022-12-08T21:49:55.082Z,100707.31
2022-12-08T21:52:21.738Z,100710.22
2022-12-08T21:54:48.550Z,100714.56
2022-12-08T21:57:15.019Z,100711.84
2022-12-08T21:59:41.606Z,100710.00
2022-12-08T22:02:13.751Z,100708.34
2022-12-08T22:04:42.194Z,100706.72
2022-12-08T22:07:09.825Z,100717.25
2022-12-08T22:09:36.467Z,100715.41
2022-12-08T22:12:03.213Z,100706.72
2022-12-08T22:14:30.153Z,100711.06
2022-12-08T22:16:56.735Z,100713.75
2022-12-08T22:19:24.802Z,100702.97
2022-12-08T22:21:51.469Z,100711.31
2022-12-08T22:24:18.015Z,100716.44
2022-12-08T22:26:44.604Z,100717.50
2022-12-08T22:29:11.164Z,100716.44
2022-12-08T22:31:37.790Z,100715.63
2022-12-08T22:34:04.403Z,100710.50
2022-12-08T22:36:30.983Z,100706.16
2022-12-08T22:38:57.568Z,100709.69
2022-12-08T22:41:24.491Z,100698.09
2022-12-08T22:43:51.274Z,100698.91
2022-12-08T22:46:23.917Z,100707.78
2022-12-08T22:48:51.579Z,100701.59
2022-12-08T22:51:18.471Z,100702.63
2022-12-08T22:53:45.659Z,100696.44
2022-12-08T22:56:13.363Z,100693.72
2022-12-08T22:58:41.336Z,100689.41
2022-12-08T23:01:08.972Z,100690.22
2022-12-08T23:03:36.096Z,100693.72
2022-12-08T23:06:12.379Z,100685.91
2022-12-08T23:08:39.634Z,100695.88
2022-12-08T23:11:06.196Z,100691.03
2022-12-08T23:13:32.820Z,100684.03
2022-12-08T23:15:59.421Z,100686.72
2022-12-08T23:18:25.902Z,100689.41
2022-12-08T23:20:52.552Z,100697.50
2022-12-08T23:23:19.126Z,100694.81
2022-12-08T23:25:45.667Z,100710.16
2022-12-08T23:28:12.900Z,100698.56
2022-12-08T23:30:40.809Z,100712.84
2022-12-08T23:33:07.907Z,100709.34
2022-12-08T23:35:34.867Z,100722.81
2022-12-08T23:38:01.643Z,100705.00
2022-12-08T23:40:28.301Z,100708.53
2022-12-08T23:42:54.901Z,100712.03
2022-12-08T23:45:21.660Z,100710.38
2022-12-08T23:47:48.173Z,100710.38
2022-12-08T23:50:14.655Z,100711.22
2022-12-08T23:52:41.111Z,100708.53
2022-12-08T23:55:08.328Z,100705.84
2022-12-08T23:57:36.162Z,100705.00
